createdAt,value
2018-05-08T00:00:11.080Z,994.02
2018-05-08T00:01:11.250Z,994.01
2018-05-08T00:02:11.416Z,994.04
2018-05-08T00:03:11.582Z,994.03
2018-05-08T00:04:11.746Z,994.07
2018-05-08T00:05:11.912Z,994.04
2018-05-08T00:06:12.084Z,994.03
2018-05-08T00:07:12.246Z,994.05
2018-05-08T00:08:12.411Z,994.06
2018-05-08T00:09:12.582Z,994.00
2018-05-08T00:10:12.744Z,993.99
2018-05-08T00:11:12.910Z,994.00
2018-05-08T00:12:13.075Z,994.03
2018-05-08T00:13:13.241Z,994.05
2018-05-08T00:15:55.527Z,994.04
2018-05-08T00:16:55.688Z,994.08
2018-05-08T00:17:55.853Z,994.04
2018-05-08T00:18:56.017Z,994.04
2018-05-08T00:19:56.192Z,994.04
2018-05-08T00:20:56.348Z,994.03
2018-05-08T00:21:56.514Z,994.00
2018-05-08T00:22:56.677Z,993.98
2018-05-08T00:23:56.845Z,993.97
2018-05-08T00:24:57.009Z,993.96
2018-05-08T00:25:57.175Z,993.94
2018-05-08T00:26:57.342Z,993.94
2018-05-08T00:27:57.508Z,993.91
2018-05-08T00:28:57.671Z,993.92
2018-05-08T00:29:57.838Z,993.88
2018-05-08T00:32:40.381Z,993.85
2018-05-08T00:33:40.547Z,993.89
2018-05-08T00:34:40.716Z,993.82
2018-05-08T00:35:40.876Z,993.85
2018-05-08T00:36:41.046Z,993.81
2018-05-08T00:37:41.222Z,993.77
2018-05-08T00:38:41.394Z,993.82
2018-05-08T00:39:41.560Z,993.80
2018-05-08T00:40:41.726Z,993.76
2018-05-08T00:41:41.907Z,993.75
2018-05-08T00:42:42.054Z,993.74
2018-05-08T00:43:42.218Z,993.75
2018-05-08T00:44:42.384Z,993.69
2018-05-08T00:45:42.553Z,993.68
2018-05-08T00:46:42.717Z,993.72
2018-05-08T00:49:25.278Z,993.71
2018-05-08T00:50:25.441Z,993.72
2018-05-08T00:51:25.605Z,993.70
2018-05-08T00:52:25.772Z,993.71
2018-05-08T00:53:25.937Z,993.69
2018-05-08T00:54:26.103Z,993.67
2018-05-08T00:55:26.270Z,993.67
2018-05-08T00:56:26.435Z,993.63
2018-05-08T00:57:26.601Z,993.62
2018-05-08T00:58:26.767Z,993.62
2018-05-08T00:59:26.939Z,993.61
2018-05-08T01:00:27.098Z,993.60
2018-05-08T01:01:27.265Z,993.61
2018-05-08T01:02:27.431Z,993.52
2018-05-08T01:03:27.592Z,993.60
2018-05-08T01:06:09.853Z,993.64
2018-05-08T01:07:10.019Z,993.59
2018-05-08T01:08:10.185Z,993.57
2018-05-08T01:09:10.348Z,993.59
2018-05-08T01:10:10.514Z,993.56
2018-05-08T01:11:10.682Z,993.52
2018-05-08T01:12:10.846Z,993.56
2018-05-08T01:13:11.013Z,993.59
2018-05-08T01:14:11.179Z,993.55
2018-05-08T01:15:11.346Z,993.58
2018-05-08T01:17:53.896Z,993.58
2018-05-08T01:18:54.063Z,993.61
2018-05-08T01:19:54.227Z,993.55
2018-05-08T01:20:54.393Z,993.58
2018-05-08T01:21:54.556Z,993.59
2018-05-08T01:22:54.720Z,993.60
2018-05-08T01:23:54.882Z,993.55
2018-05-08T01:24:55.047Z,993.56
2018-05-08T01:25:55.212Z,993.58
2018-05-08T01:26:55.379Z,993.60
2018-05-08T01:29:37.948Z,993.63
2018-05-08T01:30:38.111Z,993.64
2018-05-08T01:31:38.276Z,993.64
2018-05-08T01:32:38.437Z,993.63
2018-05-08T01:33:38.603Z,993.66
2018-05-08T01:34:38.770Z,993.59
2018-05-08T01:35:38.931Z,993.59
2018-05-08T01:36:39.096Z,993.63
2018-05-08T01:37:39.265Z,993.63
2018-05-08T01:38:39.427Z,993.61
2018-05-08T01:41:21.689Z,993.61
2018-05-08T01:42:21.852Z,993.60
2018-05-08T01:43:22.104Z,993.57
2018-05-08T01:44:22.180Z,993.58
2018-05-08T01:45:22.346Z,993.59
2018-05-08T01:46:22.513Z,993.62
2018-05-08T01:47:22.677Z,993.64
2018-05-08T01:48:22.840Z,993.61
2018-05-08T01:49:23.005Z,993.59
2018-05-08T01:50:23.170Z,993.56
2018-05-08T01:53:05.721Z,993.56
2018-05-08T01:54:05.883Z,993.51
2018-05-08T01:55:06.048Z,993.52
2018-05-08T01:56:06.214Z,993.52
2018-05-08T01:57:06.379Z,993.52
2018-05-08T01:58:06.547Z,993.54
2018-05-08T01:59:06.708Z,993.54
2018-05-08T02:00:06.874Z,993.52
2018-05-08T02:01:07.038Z,993.52
2018-05-08T02:02:07.202Z,993.54
2018-05-08T02:04:49.764Z,993.59
2018-05-08T02:05:49.932Z,993.60
2018-05-08T02:06:50.096Z,993.59
2018-05-08T02:07:50.261Z,993.59
2018-05-08T02:08:50.433Z,993.57
2018-05-08T02:09:50.591Z,993.54
2018-05-08T02:10:51.503Z,993.53
2018-05-08T02:11:50.913Z,993.57
2018-05-08T02:12:51.078Z,993.60
2018-05-08T02:13:51.244Z,993.61
2018-05-08T02:16:33.794Z,993.54
2018-05-08T02:17:33.960Z,993.54
2018-05-08T02:18:34.124Z,993.53
2018-05-08T02:19:34.290Z,993.55
2018-05-08T02:20:34.456Z,993.50
2018-05-08T02:21:34.619Z,993.52
2018-05-08T02:22:34.785Z,993.51
2018-05-08T02:23:34.947Z,993.50
2018-05-08T02:24:35.110Z,993.50
2018-05-08T02:25:35.278Z,993.51
2018-05-08T02:28:17.837Z,993.46
2018-05-08T02:29:18.000Z,993.49
2018-05-08T02:30:18.173Z,993.44
2018-05-08T02:31:18.330Z,993.46
2018-05-08T02:32:18.497Z,993.51
2018-05-08T02:33:18.658Z,993.46
2018-05-08T02:34:18.835Z,993.53
2018-05-08T02:35:18.989Z,993.47
2018-05-08T02:36:19.157Z,993.48
2018-05-08T02:37:19.394Z,993.46
2018-05-08T02:40:01.585Z,993.48
2018-05-08T02:41:01.752Z,993.45
2018-05-08T02:42:01.916Z,993.42
2018-05-08T02:43:02.081Z,993.43
2018-05-08T02:44:02.245Z,993.43
2018-05-08T02:45:02.409Z,993.41
2018-05-08T02:46:02.572Z,993.40
2018-05-08T02:47:02.738Z,993.33
2018-05-08T02:48:02.903Z,993.34
2018-05-08T02:49:03.066Z,993.30
2018-05-08T02:50:03.232Z,993.32
2018-05-08T02:51:03.396Z,993.32
2018-05-08T02:52:03.564Z,993.34
2018-05-08T02:53:03.726Z,993.33
2018-05-08T02:54:03.889Z,993.30
2018-05-08T02:59:14.868Z,993.26
2018-05-08T03:00:14.664Z,993.28
2018-05-08T03:01:14.827Z,993.31
2018-05-08T03:02:14.984Z,993.31
2018-05-08T03:03:15.147Z,993.35
2018-05-08T03:04:15.312Z,993.32
2018-05-08T03:05:15.475Z,993.32
2018-05-08T03:06:15.639Z,993.30
2018-05-08T03:07:15.804Z,993.31
2018-05-08T03:08:15.968Z,993.32
2018-05-08T03:10:58.530Z,993.28
2018-05-08T03:11:58.701Z,993.26
2018-05-08T03:12:58.868Z,993.23
2018-05-08T03:13:59.027Z,993.23
2018-05-08T03:14:59.185Z,993.27
2018-05-08T03:15:59.354Z,993.22
2018-05-08T03:16:59.514Z,993.20
2018-05-08T03:17:59.678Z,993.24
2018-05-08T03:18:59.844Z,993.28
2018-05-08T03:20:00.009Z,993.25
2018-05-08T03:21:00.173Z,993.30
2018-05-08T03:22:00.339Z,993.27
2018-05-08T03:23:00.502Z,993.30
2018-05-08T03:24:00.665Z,993.28
2018-05-08T03:25:00.833Z,993.33
2018-05-08T03:27:43.092Z,993.31
2018-05-08T03:28:43.259Z,993.30
2018-05-08T03:29:43.424Z,993.32
2018-05-08T03:30:43.589Z,993.34
2018-05-08T03:31:43.752Z,993.25
2018-05-08T03:32:43.917Z,993.27
2018-05-08T03:33:44.088Z,993.28
2018-05-08T03:34:44.250Z,993.29
2018-05-08T03:35:44.413Z,993.29
2018-05-08T03:36:44.578Z,993.29
2018-05-08T03:37:44.742Z,993.30
2018-05-08T03:38:44.903Z,993.30
2018-05-08T03:39:45.068Z,993.28
2018-05-08T03:40:45.229Z,993.30
2018-05-08T03:41:45.390Z,993.27
2018-05-08T03:44:27.951Z,993.26
2018-05-08T03:45:28.115Z,993.28
2018-05-08T03:46:28.274Z,993.24
2018-05-08T03:47:28.438Z,993.26
2018-05-08T03:48:28.602Z,993.25
2018-05-08T03:49:28.768Z,993.28
2018-05-08T03:50:28.931Z,993.26
2018-05-08T03:51:29.094Z,993.30
2018-05-08T03:52:29.256Z,993.30
2018-05-08T03:53:29.422Z,993.27
2018-05-08T03:56:11.971Z,993.30
2018-05-08T03:57:12.138Z,993.30
2018-05-08T03:58:12.299Z,993.29
2018-05-08T03:59:12.467Z,993.30
2018-05-08T04:00:12.629Z,993.23
2018-05-08T04:01:12.795Z,993.28
2018-05-08T04:02:12.955Z,993.28
2018-05-08T04:03:13.123Z,993.27
2018-05-08T04:04:13.283Z,993.25
2018-05-08T04:05:13.448Z,993.23
2018-05-08T04:07:55.706Z,993.22
2018-05-08T04:08:55.871Z,993.20
2018-05-08T04:09:56.033Z,993.25
2018-05-08T04:10:56.198Z,993.22
2018-05-08T04:11:56.366Z,993.23
2018-05-08T04:12:56.530Z,993.22
2018-05-08T04:13:56.721Z,993.24
2018-05-08T04:14:56.883Z,993.26
2018-05-08T04:15:57.049Z,993.22
2018-05-08T04:16:57.206Z,993.21
2018-05-08T04:17:57.368Z,993.20
2018-05-08T04:18:57.533Z,993.20
2018-05-08T04:19:57.697Z,993.19
2018-05-08T04:20:57.871Z,993.21
2018-05-08T04:21:58.023Z,993.17
2018-05-08T04:24:40.274Z,993.17
2018-05-08T04:25:40.437Z,993.19
2018-05-08T04:26:40.599Z,993.17
2018-05-08T04:27:40.774Z,993.18
2018-05-08T04:28:40.936Z,993.17
2018-05-08T04:29:41.100Z,993.15
2018-05-08T04:30:48.715Z,993.13
2018-05-08T04:31:41.371Z,993.15
2018-05-08T04:32:41.537Z,993.16
2018-05-08T04:33:42.331Z,993.13
2018-05-08T04:34:41.875Z,993.15
2018-05-08T04:37:16.919Z,993.12
2018-05-08T04:38:17.093Z,993.13
2018-05-08T04:39:17.272Z,993.08
2018-05-08T04:40:17.423Z,993.10
2018-05-08T04:41:17.579Z,993.08
2018-05-08T04:42:17.746Z,993.04
2018-05-08T04:43:17.911Z,993.05
2018-05-08T04:44:18.073Z,993.05
2018-05-08T04:45:18.247Z,993.07
2018-05-08T04:46:18.445Z,993.13
2018-05-08T04:48:50.711Z,993.09
2018-05-08T04:49:50.869Z,993.10
2018-05-08T04:50:51.032Z,993.11
2018-05-08T04:51:51.199Z,993.13
2018-05-08T04:52:51.367Z,993.15
2018-05-08T04:53:51.517Z,993.15
2018-05-08T04:54:51.702Z,993.12
2018-05-08T04:55:51.870Z,993.13
2018-05-08T04:56:52.012Z,993.12
2018-05-08T04:57:52.203Z,993.11
2018-05-08T04:58:52.351Z,993.12
2018-05-08T04:59:52.523Z,993.14
2018-05-08T05:00:52.812Z,993.13
2018-05-08T05:01:52.828Z,993.07
2018-05-08T05:02:52.980Z,993.09
2018-05-08T05:05:43.825Z,993.05
2018-05-08T05:06:35.857Z,992.96
2018-05-08T05:07:36.037Z,992.97
2018-05-08T05:08:36.187Z,992.99
2018-05-08T05:09:36.355Z,992.96
2018-05-08T05:10:37.305Z,992.95
2018-05-08T05:11:36.714Z,992.91
2018-05-08T05:12:36.907Z,992.96
2018-05-08T05:13:44.872Z,992.96
2018-05-08T05:14:37.265Z,992.98
2018-05-08T05:15:37.430Z,992.94
2018-05-08T05:16:37.607Z,992.94
2018-05-08T05:17:37.760Z,992.92
2018-05-08T05:18:37.922Z,992.88
2018-05-08T05:19:38.085Z,992.86
2018-05-08T05:20:38.250Z,992.87
2018-05-08T05:21:38.562Z,992.90
2018-05-08T05:22:38.666Z,992.85
2018-05-08T05:23:38.768Z,992.88
2018-05-08T05:24:38.931Z,992.86
2018-05-08T05:25:40.803Z,992.89
2018-05-08T05:26:39.845Z,992.86
2018-05-08T05:27:39.376Z,992.87
2018-05-08T05:30:11.953Z,992.84
2018-05-08T05:31:12.143Z,992.82
2018-05-08T05:32:12.321Z,992.85
2018-05-08T05:33:12.492Z,992.86
2018-05-08T05:34:12.668Z,992.87
2018-05-08T05:35:20.535Z,992.88
2018-05-08T05:36:12.998Z,992.89
2018-05-08T05:37:13.176Z,992.83
2018-05-08T05:38:13.333Z,992.84
2018-05-08T05:39:13.499Z,992.85
2018-05-08T05:40:13.664Z,992.85
2018-05-08T05:41:13.829Z,992.89
2018-05-08T05:42:13.991Z,992.86
2018-05-08T05:43:14.157Z,992.86
2018-05-08T05:44:14.338Z,992.89
2018-05-08T05:45:14.495Z,992.85
2018-05-08T05:46:14.675Z,992.90
2018-05-08T05:47:14.830Z,992.89
2018-05-08T05:48:14.994Z,992.86
2018-05-08T05:49:15.155Z,992.97
2018-05-08T05:52:47.593Z,993.27
2018-05-08T05:53:47.759Z,993.40
2018-05-08T05:54:47.923Z,993.54
2018-05-08T05:55:48.093Z,993.57
2018-05-08T05:56:55.716Z,993.61
2018-05-08T05:57:48.382Z,993.60
2018-05-08T05:58:48.545Z,993.65
2018-05-08T05:59:48.712Z,993.74
2018-05-08T06:00:48.881Z,993.81
2018-05-08T06:01:49.048Z,993.91
2018-05-08T06:02:49.217Z,993.99
2018-05-08T06:03:49.393Z,994.05
2018-05-08T06:04:49.554Z,993.99
2018-05-08T06:05:49.715Z,993.57
2018-05-08T06:06:49.891Z,993.03
2018-05-08T06:07:50.052Z,993.30
2018-05-08T06:08:50.219Z,992.93
2018-05-08T06:09:50.392Z,992.82
2018-05-08T06:10:50.566Z,992.72
2018-05-08T06:13:22.924Z,992.56
2018-05-08T06:14:22.966Z,992.52
2018-05-08T06:15:23.129Z,992.52
2018-05-08T06:16:23.297Z,992.53
2018-05-08T06:17:23.456Z,992.51
2018-05-08T06:18:23.643Z,992.47
2018-05-08T06:19:23.807Z,992.47
2018-05-08T06:20:24.018Z,992.49
2018-05-08T06:21:24.144Z,992.49
2018-05-08T06:22:24.313Z,992.53
2018-05-08T06:24:56.594Z,992.59
2018-05-08T06:25:56.763Z,992.59
2018-05-08T06:27:04.897Z,992.57
2018-05-08T06:27:57.060Z,992.54
2018-05-08T06:28:57.227Z,992.51
2018-05-08T06:29:57.384Z,992.51
2018-05-08T06:30:57.544Z,992.51
2018-05-08T06:31:57.723Z,992.54
2018-05-08T06:32:57.886Z,992.50
2018-05-08T06:33:58.052Z,992.51
2018-05-08T06:34:58.220Z,992.51
2018-05-08T06:35:58.385Z,992.48
2018-05-08T06:36:58.551Z,992.48
2018-05-08T06:37:58.725Z,992.47
2018-05-08T06:38:58.937Z,992.48
2018-05-08T06:39:59.128Z,992.47
2018-05-08T06:42:31.342Z,992.44
2018-05-08T06:43:31.509Z,992.49
2018-05-08T06:44:31.689Z,992.46
2018-05-08T06:45:31.864Z,992.44
2018-05-08T06:46:32.031Z,992.39
2018-05-08T06:47:32.376Z,992.40
2018-05-08T06:48:32.377Z,992.37
2018-05-08T06:49:32.548Z,992.38
2018-05-08T06:50:32.733Z,992.38
2018-05-08T06:51:32.900Z,992.37
2018-05-08T06:52:33.073Z,992.37
2018-05-08T06:53:33.262Z,992.39
2018-05-08T06:54:33.428Z,992.38
2018-05-08T06:55:33.591Z,992.41
2018-05-08T06:56:33.770Z,992.39
2018-05-08T06:59:16.048Z,992.34
2018-05-08T07:00:16.209Z,992.32
2018-05-08T07:01:16.414Z,992.30
2018-05-08T07:02:16.579Z,992.29
2018-05-08T07:03:16.717Z,992.28
2018-05-08T07:04:17.555Z,992.24
2018-05-08T07:05:16.980Z,992.25
2018-05-08T07:06:17.157Z,992.22
2018-05-08T07:07:17.321Z,992.21
2018-05-08T07:08:17.480Z,992.28
2018-05-08T07:09:25.635Z,992.31
2018-05-08T07:10:18.582Z,992.30
2018-05-08T07:11:17.875Z,992.24
2018-05-08T07:12:18.046Z,992.25
2018-05-08T07:13:26.189Z,992.29
2018-05-08T07:14:18.383Z,992.32
2018-05-08T07:15:18.514Z,992.28
2018-05-08T07:16:18.738Z,992.29
2018-05-08T07:17:18.849Z,992.27
2018-05-08T07:18:19.014Z,992.25
2018-05-08T07:19:19.180Z,992.26
2018-05-08T07:20:19.348Z,992.22
2018-05-08T07:21:19.528Z,992.21
2018-05-08T07:22:19.697Z,992.25
2018-05-08T07:23:19.872Z,992.16
2018-05-08T07:26:02.430Z,992.11
2018-05-08T07:27:02.603Z,992.09
2018-05-08T07:28:02.792Z,992.09
2018-05-08T07:29:02.941Z,992.10
2018-05-08T07:30:03.116Z,992.13
2018-05-08T07:31:03.278Z,992.15
2018-05-08T07:32:03.447Z,992.16
2018-05-08T07:33:03.615Z,992.13
2018-05-08T07:34:03.786Z,992.16
2018-05-08T07:35:03.956Z,992.18
2018-05-08T07:36:04.125Z,992.19
2018-05-08T07:37:04.294Z,992.14
2018-05-08T07:38:04.464Z,992.15
2018-05-08T07:39:04.632Z,992.11
2018-05-08T07:40:04.798Z,992.17
2018-05-08T07:42:47.081Z,992.14
2018-05-08T07:43:55.232Z,992.13
2018-05-08T07:44:47.395Z,992.12
2018-05-08T07:45:48.147Z,992.12
2018-05-08T07:46:47.703Z,992.18
2018-05-08T07:47:47.871Z,992.17
2018-05-08T07:48:48.041Z,992.12
2018-05-08T07:49:48.217Z,992.08
2018-05-08T07:50:48.378Z,992.07
2018-05-08T07:51:48.592Z,992.13
2018-05-08T07:52:48.717Z,992.11
2018-05-08T07:53:48.881Z,992.07
2018-05-08T07:54:49.065Z,992.04
2018-05-08T07:55:49.247Z,992.04
2018-05-08T07:56:49.415Z,992.05
2018-05-08T07:57:49.575Z,992.02
2018-05-08T07:58:49.766Z,992.08
2018-05-08T08:01:23.386Z,991.96
2018-05-08T08:02:23.531Z,992.02
2018-05-08T08:03:23.851Z,992.02
2018-05-08T08:04:23.943Z,992.00
2018-05-08T08:05:24.058Z,991.98
2018-05-08T08:06:31.895Z,991.95
2018-05-08T08:07:24.494Z,991.92
2018-05-08T08:08:24.602Z,991.90
2018-05-08T08:09:24.854Z,991.89
2018-05-08T08:10:24.929Z,991.87
2018-05-08T08:11:25.105Z,991.91
2018-05-08T08:12:25.308Z,991.91
2018-05-08T08:13:25.442Z,991.87
2018-05-08T08:14:25.613Z,991.88
2018-05-08T08:15:25.783Z,991.89
2018-05-08T08:16:33.895Z,991.92
2018-05-08T08:17:26.143Z,991.92
2018-05-08T08:18:26.269Z,991.91
2018-05-08T08:19:26.428Z,991.89
2018-05-08T08:20:26.580Z,991.88
2018-05-08T08:21:26.753Z,991.87
2018-05-08T08:22:26.919Z,991.88
2018-05-08T08:23:27.092Z,991.87
2018-05-08T08:24:27.266Z,991.87
2018-05-08T08:25:27.432Z,991.89
2018-05-08T08:26:27.612Z,991.84
2018-05-08T08:27:27.783Z,991.80
2018-05-08T08:28:28.017Z,991.76
2018-05-08T08:29:28.112Z,991.79
2018-05-08T08:30:28.288Z,991.79
2018-05-08T08:33:11.790Z,991.79
2018-05-08T08:34:10.925Z,991.74
2018-05-08T08:35:11.098Z,991.73
2018-05-08T08:36:11.276Z,991.74
2018-05-08T08:37:11.448Z,991.69
2018-05-08T08:38:11.617Z,991.68
2018-05-08T08:39:11.800Z,991.67
2018-05-08T08:40:11.955Z,991.66
2018-05-08T08:41:12.136Z,991.65
2018-05-08T08:42:12.305Z,991.65
2018-05-08T08:44:44.987Z,991.63
2018-05-08T08:45:45.179Z,991.60
2018-05-08T08:46:45.350Z,991.62
2018-05-08T08:47:45.599Z,991.54
2018-05-08T08:48:45.690Z,991.54
2018-05-08T08:49:45.867Z,991.53
2018-05-08T08:50:46.033Z,991.56
2018-05-08T08:51:46.203Z,991.54
2018-05-08T08:52:46.376Z,991.48
2018-05-08T08:53:46.549Z,991.51
2018-05-08T08:56:28.822Z,991.41
2018-05-08T08:57:28.997Z,991.41
2018-05-08T08:58:29.180Z,991.41
2018-05-08T08:59:29.347Z,991.45
2018-05-08T09:00:29.533Z,991.49
2018-05-08T09:01:29.685Z,991.45
2018-05-08T09:02:29.856Z,991.51
2018-05-08T09:03:30.034Z,991.46
2018-05-08T09:04:30.201Z,991.38
2018-05-08T09:05:30.355Z,991.41
2018-05-08T09:06:30.523Z,991.39
2018-05-08T09:07:30.697Z,991.37
2018-05-08T09:08:31.865Z,991.42
2018-05-08T09:09:31.031Z,991.46
2018-05-08T09:10:31.202Z,991.41
2018-05-08T09:13:03.487Z,991.34
2018-05-08T09:14:06.503Z,991.39
2018-05-08T09:15:03.793Z,991.32
2018-05-08T09:16:03.968Z,991.35
2018-05-08T09:17:04.139Z,991.31
2018-05-08T09:18:04.308Z,991.30
2018-05-08T09:19:04.475Z,991.27
2018-05-08T09:20:04.650Z,991.28
2018-05-08T09:21:04.825Z,991.30
2018-05-08T09:22:12.640Z,991.23
2018-05-08T09:23:05.187Z,991.22
2018-05-08T09:24:05.356Z,991.22
2018-05-08T09:25:05.530Z,991.22
2018-05-08T09:26:05.693Z,991.21
2018-05-08T09:27:05.955Z,991.15
2018-05-08T09:28:06.027Z,991.13
2018-05-08T09:29:06.205Z,991.15
2018-05-08T09:31:38.487Z,991.09
2018-05-08T09:32:38.482Z,991.06
2018-05-08T09:33:38.784Z,991.06
2018-05-08T09:34:38.900Z,991.11
2018-05-08T09:37:10.959Z,991.05
2018-05-08T09:38:11.133Z,991.08
2018-05-08T09:39:11.303Z,991.01
2018-05-08T09:40:11.485Z,990.93
2018-05-08T09:41:11.661Z,990.94
2018-05-08T09:42:11.888Z,990.97
2018-05-08T09:43:19.999Z,990.94
2018-05-08T09:44:12.162Z,990.94
2018-05-08T09:45:12.333Z,990.96
2018-05-08T09:46:12.500Z,990.99
2018-05-08T09:47:20.361Z,991.01
2018-05-08T09:48:12.760Z,990.96
2018-05-08T09:49:12.971Z,990.95
2018-05-08T09:50:13.117Z,990.93
2018-05-08T09:51:13.271Z,990.93
2018-05-08T09:52:13.444Z,990.93
2018-05-08T09:53:13.611Z,990.84
2018-05-08T09:54:13.809Z,990.79
2018-05-08T09:55:13.974Z,990.80
2018-05-08T09:56:14.141Z,990.79
2018-05-08T09:57:14.320Z,990.86
2018-05-08T09:58:14.489Z,990.81
2018-05-08T09:59:14.663Z,990.82
2018-05-08T10:00:14.828Z,990.80
2018-05-08T10:01:15.000Z,990.81
2018-05-08T10:03:47.699Z,990.79
2018-05-08T10:04:47.920Z,990.78
2018-05-08T10:05:48.033Z,990.78
2018-05-08T10:06:55.370Z,990.77
2018-05-08T10:07:48.409Z,990.77
2018-05-08T10:08:49.329Z,990.76
2018-05-08T10:09:48.757Z,990.78
2018-05-08T10:10:48.919Z,990.79
2018-05-08T10:11:49.127Z,990.73
2018-05-08T10:12:49.257Z,990.77
2018-05-08T10:13:58.369Z,990.81
2018-05-08T10:14:49.651Z,990.75
2018-05-08T10:15:49.823Z,990.75
2018-05-08T10:16:49.983Z,990.67
2018-05-08T10:17:50.154Z,990.65
2018-05-08T10:18:50.331Z,990.67
2018-05-08T10:19:50.497Z,990.61
2018-05-08T10:20:50.675Z,990.63
2018-05-08T10:21:50.841Z,990.59
2018-05-08T10:22:51.013Z,990.63
2018-05-08T10:23:51.182Z,990.57
2018-05-08T10:24:59.010Z,990.53
2018-05-08T10:25:51.561Z,990.51
2018-05-08T10:26:51.840Z,990.50
2018-05-08T10:27:51.893Z,990.47
2018-05-08T10:28:59.517Z,990.51
2018-05-08T10:29:52.901Z,990.45
2018-05-08T10:30:52.324Z,990.44
2018-05-08T10:31:52.495Z,990.57
2018-05-08T10:32:52.750Z,990.44
2018-05-08T10:33:53.398Z,990.43
2018-05-08T10:34:53.063Z,990.39
2018-05-08T10:35:53.243Z,990.39
2018-05-08T10:36:53.410Z,990.37
2018-05-08T10:37:53.579Z,990.36
2018-05-08T10:38:53.751Z,990.39
2018-05-08T10:41:27.035Z,990.44
2018-05-08T10:42:27.204Z,990.41
2018-05-08T10:43:27.376Z,990.46
2018-05-08T10:44:27.546Z,990.47
2018-05-08T10:45:27.720Z,990.42
2018-05-08T10:46:28.624Z,990.36
2018-05-08T10:47:28.077Z,990.30
2018-05-08T10:48:28.254Z,990.30
2018-05-08T10:49:35.644Z,990.32
2018-05-08T10:50:36.039Z,990.25
2018-05-08T10:51:28.724Z,990.24
2018-05-08T10:52:28.891Z,990.18
2018-05-08T10:53:29.067Z,990.14
2018-05-08T10:54:29.315Z,990.19
2018-05-08T10:55:29.377Z,990.14
2018-05-08T10:56:31.103Z,990.13
2018-05-08T10:57:29.658Z,990.14
2018-05-08T10:58:29.868Z,990.15
2018-05-08T10:59:30.041Z,990.13
2018-05-08T11:00:31.104Z,990.13
2018-05-08T11:01:31.099Z,990.10
2018-05-08T11:02:30.516Z,990.11
2018-05-08T11:03:30.692Z,990.06
2018-05-08T11:04:30.858Z,989.99
2018-05-08T11:07:13.229Z,990.00
2018-05-08T11:08:13.339Z,989.96
2018-05-08T11:09:13.399Z,989.94
2018-05-08T11:10:20.727Z,989.93
2018-05-08T11:11:13.799Z,989.90
2018-05-08T11:12:13.938Z,989.93
2018-05-08T11:13:14.138Z,989.86
2018-05-08T11:14:14.558Z,989.91
2018-05-08T11:15:14.424Z,989.90
2018-05-08T11:16:14.588Z,989.83
2018-05-08T11:17:14.786Z,989.85
2018-05-08T11:18:23.695Z,989.86
2018-05-08T11:19:15.117Z,989.84
2018-05-08T11:20:15.389Z,989.95
2018-05-08T11:21:16.012Z,989.89
2018-05-08T11:22:15.844Z,989.93
2018-05-08T11:23:15.777Z,989.89
2018-05-08T11:24:16.128Z,989.84
2018-05-08T11:25:16.323Z,989.81
2018-05-08T11:26:16.276Z,989.81
2018-05-08T11:27:16.497Z,989.78
2018-05-08T11:28:16.736Z,989.77
2018-05-08T11:29:17.209Z,989.75
2018-05-08T11:30:16.958Z,989.73
2018-05-08T11:31:17.125Z,989.82
2018-05-08T11:32:17.289Z,989.72
2018-05-08T11:33:25.467Z,989.70
2018-05-08T11:34:17.602Z,989.70
2018-05-08T11:35:17.774Z,989.71
2018-05-08T11:36:17.956Z,989.70
2018-05-08T11:37:18.118Z,989.65
2018-05-08T11:38:18.287Z,989.67
2018-05-08T11:39:18.818Z,989.64
2018-05-08T11:40:26.260Z,989.64
2018-05-08T11:41:18.676Z,989.71
2018-05-08T11:42:19.717Z,989.62
2018-05-08T11:43:19.013Z,989.56
2018-05-08T11:44:19.210Z,989.55
2018-05-08T11:45:19.385Z,989.57
2018-05-08T11:46:19.545Z,989.57
2018-05-08T11:47:19.713Z,989.61
2018-05-08T11:48:19.988Z,989.63
2018-05-08T11:49:20.611Z,989.54
2018-05-08T11:50:20.503Z,989.55
2018-05-08T11:52:54.184Z,989.57
2018-05-08T11:53:55.162Z,989.57
2018-05-08T11:55:01.776Z,989.57
2018-05-08T11:55:54.572Z,989.47
2018-05-08T11:56:57.532Z,989.48
2018-05-08T11:57:55.118Z,989.45
2018-05-08T11:58:55.162Z,989.44
2018-05-08T11:59:55.369Z,989.41
2018-05-08T12:01:04.548Z,989.48
2018-05-08T12:01:55.647Z,989.45
2018-05-08T12:02:56.475Z,989.44
2018-05-08T12:03:56.189Z,989.42
2018-05-08T12:04:56.148Z,989.39
2018-05-08T12:05:56.300Z,989.34
2018-05-08T12:06:56.493Z,989.40
2018-05-08T12:07:56.661Z,989.35
2018-05-08T12:08:56.828Z,989.38
2018-05-08T12:10:04.194Z,989.37
2018-05-08T12:10:57.204Z,989.34
2018-05-08T12:11:57.903Z,989.29
2018-05-08T12:13:05.477Z,989.30
2018-05-08T12:13:57.641Z,989.28
2018-05-08T12:14:57.816Z,989.25
2018-05-08T12:15:57.991Z,989.20
2018-05-08T12:16:58.155Z,989.21
2018-05-08T12:17:58.323Z,989.22
2018-05-08T12:18:59.030Z,989.15
2018-05-08T12:19:58.708Z,989.14
2018-05-08T12:20:58.883Z,989.22
2018-05-08T12:22:07.029Z,989.15
2018-05-08T12:22:59.191Z,989.16
2018-05-08T12:23:59.382Z,989.15
2018-05-08T12:24:59.555Z,989.10
2018-05-08T12:25:59.958Z,989.20
2018-05-08T12:27:00.137Z,989.08
2018-05-08T12:28:00.134Z,989.19
2018-05-08T12:29:00.243Z,989.15
2018-05-08T12:30:00.419Z,989.22
2018-05-08T12:31:00.578Z,989.11
2018-05-08T12:32:00.792Z,989.05
2018-05-08T12:33:00.925Z,989.10
2018-05-08T12:34:01.095Z,989.10
2018-05-08T12:35:01.267Z,989.02
2018-05-08T12:36:01.444Z,988.99
2018-05-08T12:38:43.721Z,989.03
2018-05-08T12:39:51.056Z,989.00
2018-05-08T12:40:44.135Z,989.06
2018-05-08T12:41:44.397Z,989.03
2018-05-08T12:42:44.519Z,988.96
2018-05-08T12:43:45.260Z,989.04
2018-05-08T12:44:47.237Z,988.99
2018-05-08T12:45:45.054Z,989.00
2018-05-08T12:46:45.082Z,988.96
2018-05-08T12:47:47.262Z,988.96
2018-05-08T12:48:45.458Z,988.90
2018-05-08T12:49:49.776Z,988.85
2018-05-08T12:50:47.049Z,988.88
2018-05-08T12:51:47.902Z,988.89
2018-05-08T12:52:46.357Z,988.88
2018-05-08T12:55:18.807Z,988.85
2018-05-08T12:56:18.859Z,988.81
2018-05-08T12:57:19.022Z,988.81
2018-05-08T12:58:19.191Z,988.83
2018-05-08T12:59:19.353Z,988.78
2018-05-08T13:00:19.533Z,988.81
2018-05-08T13:01:20.439Z,988.86
2018-05-08T13:02:19.855Z,988.79
2018-05-08T13:03:20.032Z,988.78
2018-05-08T13:04:20.201Z,988.69
2018-05-08T13:05:20.391Z,988.68
2018-05-08T13:06:28.498Z,988.63
2018-05-08T13:07:20.653Z,988.65
2018-05-08T13:08:20.821Z,988.63
2018-05-08T13:09:21.004Z,988.64
2018-05-08T13:10:21.178Z,988.58
2018-05-08T13:11:21.392Z,988.55
2018-05-08T13:12:29.703Z,988.54
2018-05-08T13:13:22.357Z,988.56
2018-05-08T13:14:21.885Z,988.54
2018-05-08T13:15:23.513Z,988.56
2018-05-08T13:16:22.190Z,988.54
2018-05-08T13:17:22.393Z,988.56
2018-05-08T13:18:22.781Z,988.54
2018-05-08T13:19:27.062Z,988.54
2018-05-08T13:20:24.314Z,988.51
2018-05-08T13:21:24.203Z,988.50
2018-05-08T13:22:23.254Z,988.56
2018-05-08T13:24:56.533Z,988.53
2018-05-08T13:25:56.680Z,988.53
2018-05-08T13:26:56.915Z,988.43
2018-05-08T13:27:57.130Z,988.46
2018-05-08T13:29:04.369Z,988.47
2018-05-08T13:29:57.284Z,988.44
2018-05-08T13:30:57.515Z,988.40
2018-05-08T13:33:30.011Z,988.41
2018-05-08T13:34:30.190Z,988.40
2018-05-08T13:35:30.359Z,988.38
2018-05-08T13:36:31.354Z,988.36
2018-05-08T13:37:30.759Z,988.33
2018-05-08T13:38:30.930Z,988.33
2018-05-08T13:39:31.102Z,988.33
2018-05-08T13:40:31.271Z,988.31
2018-05-08T13:41:31.442Z,988.33
2018-05-08T13:42:31.631Z,988.25
2018-05-08T13:45:13.909Z,988.24
2018-05-08T13:46:14.074Z,988.21
2018-05-08T13:47:14.930Z,988.25
2018-05-08T13:48:14.407Z,988.21
2018-05-08T13:49:14.585Z,988.21